Time;durP1;ratioP1;P1;durP2;ratioP2;P2;SDS_P1;SDS_P2;PMS_P1;PMS_P2;Temp;Humidity;BMP_temperature;BMP_pressure;BME280_temperature;BME280_humidity;BME280_pressure;Samples;Min_cycle;Max_cycle;Signal;HPM_P1;HPM_P2
2022/01/19 00:05:32;;;;;;;6.10;2.80;;;;;;;19.97;44.89;98470.88;13043176;22;20019;-55
2022/01/19 00:10:52;;;;;;;4.22;2.75;;;;;;;19.95;45.03;98454.13;13045148;22;20317;-55
2022/01/19 00:16:12;;;;;;;6.03;2.80;;;;;;;19.94;44.83;98439.81;13044507;22;20025;-56
2022/01/19 00:21:33;;;;;;;6.03;3.00;;;;;;;19.93;44.93;98421.16;13043853;22;20044;-56
2022/01/19 00:26:52;;;;;;;5.28;2.78;;;;;;;19.90;44.91;98422.53;13043790;22;20019;-55
2022/01/19 00:32:12;;;;;;;5.13;2.20;;;;;;;19.89;44.87;98412.00;13043665;22;20016;-55
2022/01/19 00:37:31;;;;;;;5.38;2.60;;;;;;;19.87;44.75;98414.19;13021762;22;20052;-55
2022/01/19 00:42:52;;;;;;;5.22;2.58;;;;;;;19.86;44.69;98412.59;13044548;22;20366;-55
2022/01/19 00:48:11;;;;;;;4.80;2.45;;;;;;;19.83;44.73;98400.44;13044335;22;20021;-55
2022/01/19 00:53:30;;;;;;;5.00;2.60;;;;;;;19.83;44.67;98408.53;13064279;22;20019;-55
2022/01/19 00:58:50;;;;;;;3.92;2.50;;;;;;;19.81;44.65;98399.91;13043328;22;20038;-55
2022/01/19 01:04:10;;;;;;;4.22;2.50;;;;;;;19.79;44.60;98396.69;13020499;22;20035;-55
2022/01/19 01:09:30;;;;;;;5.13;2.45;;;;;;;19.79;44.52;98385.06;13043491;22;20027;-53
2022/01/19 01:20:28;;;;;;;4.03;2.20;;;;;;;19.74;44.50;98370.53;13064787;22;20022;-55
2022/01/19 01:25:48;;;;;;;3.35;1.95;;;;;;;19.72;44.63;98355.69;13044130;22;20022;-55
2022/01/19 01:31:09;;;;;;;3.45;1.92;;;;;;;19.71;44.43;98345.91;13043033;22;20733;-56
2022/01/19 01:36:30;;;;;;;3.35;2.35;;;;;;;19.69;44.56;98327.28;13045392;22;20018;-56
2022/01/19 01:41:50;;;;;;;4.63;2.50;;;;;;;19.68;44.48;98319.44;13068398;22;20072;-55
2022/01/19 01:47:19;;;;;;;3.65;2.10;;;;;;;19.66;44.36;98306.25;13046883;22;20022;-55
2022/01/19 01:58:18;;;;;;;4.03;2.00;;;;;;;19.62;44.48;98301.69;13023875;22;20015;-55
2022/01/19 02:03:47;;;;;;;3.85;2.08;;;;;;;19.62;44.39;98304.38;13023533;22;20019;-55
2022/01/19 02:09:13;;;;;;;3.83;1.98;;;;;;;19.59;44.25;98284.16;13023514;22;20019;-55
2022/01/19 02:26:00;;;;;;;2.60;2.03;;;;;;;19.54;44.37;98247.16;13046809;22;20385;-55
2022/01/19 02:42:42;;;;;;;3.88;2.10;;;;;;;19.49;44.22;98244.53;13022714;22;20015;-54
2022/01/19 02:53:59;;;;;;;3.50;1.95;;;;;;;19.46;44.09;98244.28;12869133;23;20650;-55
2022/01/19 03:10:19;;;;;;;2.42;1.60;;;;;;;19.40;44.01;98224.63;13045699;22;20011;-55
2022/01/19 03:15:39;;;;;;;3.13;2.00;;;;;;;19.37;44.15;98211.69;13022517;22;20015;-54
2022/01/19 03:20:59;;;;;;;2.72;1.65;;;;;;;19.35;44.10;98211.97;13045829;22;20015;-54
2022/01/19 03:26:18;;;;;;;2.35;1.88;;;;;;;19.34;44.17;98190.66;13022347;22;20015;-55
2022/01/19 03:31:58;;;;;;;3.75;1.80;;;;;;;19.33;44.13;98186.34;13045521;22;20015;-54
2022/01/19 03:37:17;;;;;;;2.10;1.70;;;;;;;19.31;44.05;98180.44;13065869;22;20019;-55
2022/01/19 03:42:37;;;;;;;2.28;1.60;;;;;;;19.29;44.12;98171.81;13065964;22;20094;-54
2022/01/19 03:49:08;;;;;;;2.38;1.67;;;;;;;19.28;43.91;98175.59;13045069;22;20027;-55
2022/01/19 03:53:45;;;;;;;2.13;1.60;;;;;;;19.26;44.03;98178.56;13012583;22;20451;-56
2022/01/19 03:59:05;;;;;;;2.85;1.80;;;;;;;19.25;44.08;98170.75;13044771;22;20015;-55
2022/01/19 04:09:50;;;;;;;2.15;1.50;;;;;;;19.21;43.95;98154.34;13001123;22;20011;-55
2022/01/19 04:15:11;;;;;;;2.42;1.58;;;;;;;19.21;43.98;98158.91;13044629;22;20019;-56
2022/01/19 04:20:37;;;;;;;2.28;1.38;;;;;;;19.18;44.02;98133.28;13044744;22;20015;-55
2022/01/19 04:25:57;;;;;;;2.72;1.60;;;;;;;19.17;44.09;98123.59;13021404;22;20041;-54
2022/01/19 04:31:18;;;;;;;1.65;1.40;;;;;;;19.15;44.07;98123.06;13021869;22;20018;-55
2022/01/19 05:05:15;;;;;;;1.73;1.30;;;;;;;19.06;43.94;98076.19;13021035;22;20044;-54
2022/01/19 05:15:58;;;;;;;2.40;1.42;;;;;;;19.03;43.91;98065.94;13046687;22;20085;-55
2022/01/19 05:21:18;;;;;;;2.08;1.38;;;;;;;19.03;43.85;98065.94;13024770;22;20027;-55
2022/01/19 05:26:56;;;;;;;1.73;1.20;;;;;;;19.02;43.86;98048.16;13068706;22;20015;-54
2022/01/19 05:32:24;;;;;;;1.77;1.33;;;;;;;19.02;43.90;98043.56;13024363;22;20018;-55
2022/01/19 05:37:45;;;;;;;1.80;1.45;;;;;;;19.03;44.06;98039.75;13024054;22;20257;-54
2022/01/19 05:43:23;;;;;;;2.37;1.43;;;;;;;19.06;44.20;98043.78;13067937;22;20016;-54
2022/01/19 05:48:43;;;;;;;2.03;1.40;;;;;;;19.06;44.24;98028.38;13023548;22;20027;-55
2022/01/19 05:54:03;;;;;;;1.42;1.25;;;;;;;19.08;44.43;98009.19;13044284;22;20595;-54
2022/01/19 05:59:23;;;;;;;2.10;1.30;;;;;;;19.11;44.57;98008.59;13043830;22;20015;-55
2022/01/19 06:04:43;;;;;;;1.65;1.25;;;;;;;19.14;44.46;98000.69;13024062;22;20467;-55
2022/01/19 06:15:59;;;;;;;1.48;1.30;;;;;;;19.18;44.08;97987.41;13067633;22;20443;-55
2022/01/19 06:21:19;;;;;;;1.38;1.27;;;;;;;19.21;44.26;97977.91;13043099;22;20011;-55
2022/01/19 06:26:42;;;;;;;1.58;1.30;;;;;;;19.23;44.18;97964.91;13021143;22;20037;-55
2022/01/19 06:32:02;;;;;;;1.77;1.25;;;;;;;19.26;44.33;97964.34;13021687;22;20012;-55
2022/01/19 06:37:22;;;;;;;2.05;1.30;;;;;;;19.29;44.20;97964.56;13040924;22;20011;-55
2022/01/19 06:42:50;;;;;;;1.20;1.10;;;;;;;19.33;44.00;97962.09;13019601;22;20015;-55
2022/01/19 06:48:10;;;;;;;1.92;1.30;;;;;;;19.35;44.02;97949.88;13020434;22;20019;-55
2022/01/19 06:53:29;;;;;;;1.33;1.10;;;;;;;19.39;43.95;97943.91;13022399;22;20082;-54
2022/01/19 06:59:07;;;;;;;1.30;1.10;;;;;;;19.42;43.81;97944.09;13044132;22;20123;-55
2022/01/19 07:04:36;;;;;;;1.67;1.10;;;;;;;19.47;43.74;97938.59;13022433;22;20829;-56
2022/01/19 07:09:57;;;;;;;1.40;1.20;;;;;;;19.49;43.73;97941.81;13022841;22;20018;-54
2022/01/19 07:15:16;;;;;;;1.35;1.08;;;;;;;19.53;43.48;97934.72;13066714;22;20011;-54
2022/01/19 07:20:36;;;;;;;1.08;0.95;;;;;;;19.56;43.62;97917.91;13022505;22;20016;-54
2022/01/19 07:25:56;;;;;;;2.75;1.20;;;;;;;19.59;43.60;97913.81;13022867;22;20370;-54
2022/01/19 07:31:17;;;;;;;2.00;1.02;;;;;;;19.64;43.28;97907.50;13041821;22;20038;-55
2022/01/19 07:36:37;;;;;;;1.20;1.10;;;;;;;19.68;43.26;97911.22;13041898;22;20090;-55
2022/01/19 07:41:57;;;;;;;1.20;1.08;;;;;;;19.71;43.14;97902.50;13021689;22;20090;-55
2022/01/19 07:47:36;;;;;;;1.30;1.08;;;;;;;19.75;43.03;97892.75;13043724;22;20019;-55
2022/01/19 07:53:01;;;;;;;0.95;0.80;;;;;;;19.79;42.94;97890.25;13020007;22;20023;-56
2022/01/19 07:58:40;;;;;;;1.27;1.13;;;;;;;19.83;42.92;97880.44;13044283;22;20030;-55
2022/01/19 08:04:09;;;;;;;1.73;1.08;;;;;;;19.87;42.82;97871.41;13020954;22;20015;-55
2022/01/19 08:09:31;;;;;;;1.25;0.85;;;;;;;19.91;42.67;97877.81;13021469;22;20090;-55
2022/01/19 08:14:51;;;;;;;1.23;0.80;;;;;;;19.93;42.71;97870.22;13021375;22;20078;-55
2022/01/19 08:20:22;;;;;;;0.73;0.73;;;;;;;19.98;42.50;97863.13;13020182;22;20022;-55
2022/01/19 08:25:42;;;;;;;1.02;0.80;;;;;;;20.01;42.65;97863.28;13020182;22;20019;-56
2022/01/19 08:31:02;;;;;;;1.50;0.90;;;;;;;20.06;42.46;97855.09;13021036;22;20015;-55
2022/01/19 08:36:57;;;;;;;1.55;1.10;;;;;;;20.09;42.35;97838.25;12940324;22;20015;-56
2022/01/19 08:42:28;;;;;;;1.67;0.90;;;;;;;20.12;42.27;97836.84;13023722;22;20015;-55
2022/01/19 08:47:48;;;;;;;0.98;0.90;;;;;;;20.18;42.20;97824.81;13025511;22;20059;-55
2022/01/19 08:53:15;;;;;;;0.95;0.90;;;;;;;20.22;42.18;97820.41;13023839;22;20015;-55
2022/01/19 08:58:52;;;;;;;3.58;0.98;;;;;;;20.27;42.25;97809.47;13021853;22;20139;-55
2022/01/19 09:04:12;;;;;;;1.75;1.00;;;;;;;20.32;42.55;97798.50;13043721;22;20015;-54
2022/01/19 09:09:32;;;;;;;1.63;0.95;;;;;;;20.38;42.79;97787.59;13046775;22;20022;-53
2022/01/19 09:14:52;;;;;;;1.15;0.90;;;;;;;20.42;42.67;97780.47;13047681;22;20339;-53
2022/01/19 09:20:14;;;;;;;2.22;1.00;;;;;;;20.45;42.84;97787.97;13047722;22;20427;-54
2022/01/19 09:25:34;;;;;;;1.02;0.93;;;;;;;20.49;42.79;97787.03;13047500;22;20015;-54
2022/01/19 09:30:53;;;;;;;1.35;1.00;;;;;;;20.54;42.86;97786.94;13047319;22;20338;-52
2022/01/19 09:36:31;;;;;;;1.58;0.90;;;;;;;20.56;42.58;97781.19;13043197;22;20019;-55
2022/01/19 09:41:51;;;;;;;1.98;0.90;;;;;;;20.58;42.66;97773.59;13042807;22;20334;-52
2022/01/19 09:47:11;;;;;;;1.52;0.90;;;;;;;20.58;42.77;97764.66;13066762;22;20451;-53
2022/01/19 09:52:30;;;;;;;2.60;0.85;;;;;;;20.59;42.73;97766.28;13044027;22;20015;-54
2022/01/19 09:57:50;;;;;;;2.85;0.85;;;;;;;20.59;42.76;97764.38;13045318;22;20382;-53
2022/01/19 10:03:13;;;;;;;2.10;0.90;;;;;;;20.60;42.71;97748.94;13045754;22;20015;-54
2022/01/19 10:08:35;;;;;;;1.95;0.82;;;;;;;20.60;42.63;97736.22;13044471;22;20026;-54
2022/01/19 10:19:49;;;;;;;1.00;0.70;;;;;;;20.61;42.47;97724.28;13045330;22;20506;-54
2022/01/19 10:25:08;;;;;;;1.30;0.88;;;;;;;20.60;42.35;97713.75;13064828;22;20023;-53
2022/01/19 10:30:28;;;;;;;1.23;0.90;;;;;;;20.60;42.48;97709.16;13065779;22;20042;-53
2022/01/19 10:35:48;;;;;;;0.80;0.80;;;;;;;20.61;42.42;97678.25;13045601;22;20019;-53
2022/01/19 10:41:09;;;;;;;1.35;0.80;;;;;;;20.61;42.41;97674.75;13045402;22;20089;-54
2022/01/19 10:46:34;;;;;;;0.70;0.70;;;;;;;20.63;42.29;97667.91;13044849;22;20025;-54
2022/01/19 10:51:58;;;;;;;0.95;0.85;;;;;;;20.61;42.39;97650.38;13044795;22;20352;-54
2022/01/19 10:57:18;;;;;;;1.60;0.80;;;;;;;20.61;42.20;97651.16;13065611;22;20019;-52
2022/01/19 11:02:38;;;;;;;1.00;0.90;;;;;;;20.60;42.29;97652.28;13043561;22;20022;-52
2022/01/19 11:07:58;;;;;;;2.20;1.00;;;;;;;20.61;42.27;97639.56;13043630;22;20028;-52
2022/01/19 11:13:39;;;;;;;1.98;0.90;;;;;;;20.61;42.33;97620.59;13041977;22;20023;-51
2022/01/19 11:18:58;;;;;;;1.27;0.80;;;;;;;20.60;42.16;97603.56;13040840;22;20634;-54
2022/01/19 11:24:29;;;;;;;3.35;0.73;;;;;;;20.60;42.11;97587.31;13043736;22;20015;-54
2022/01/19 11:30:27;;;;;;;2.25;0.80;;;;;;;20.60;42.12;97581.91;13044861;22;20012;-53
2022/01/19 11:35:47;;;;;;;3.67;1.58;;;;;;;20.61;39.41;97586.19;13065880;22;20093;-51
2022/01/19 11:41:07;;;;;;;3.83;1.90;;;;;;;20.67;36.81;97567.91;13044074;22;20533;-54
2022/01/19 11:46:43;;;;;;;2.15;1.70;;;;;;;20.65;38.54;97557.38;13045024;22;20019;-54
2022/01/19 11:52:04;;;;;;;1.67;1.50;;;;;;;20.60;38.75;97533.19;13042775;22;20011;-55
2022/01/19 11:57:27;;;;;;;2.63;1.48;;;;;;;20.58;38.99;97535.38;13043495;22;20019;-54
2022/01/19 12:02:57;;;;;;;1.75;1.50;;;;;;;20.58;39.12;97518.31;13044070;22;20016;-54
2022/01/19 12:08:35;;;;;;;2.13;1.75;;;;;;;20.56;39.11;97502.38;13064725;22;20019;-54
2022/01/19 12:14:13;;;;;;;2.80;2.38;;;;;;;20.51;35.69;97487.09;13043182;22;20526;-54
2022/01/19 12:19:39;;;;;;;20.88;9.95;;;;;;;20.45;38.77;97491.06;13063274;22;20072;-56
2022/01/19 12:25:01;;;;;;;20.70;8.75;;;;;;;20.45;40.27;97463.19;13042489;22;20015;-55
2022/01/19 12:30:27;;;;;;;29.38;11.27;;;;;;;20.47;41.57;97463.69;13043785;22;20023;-55
2022/01/19 12:35:47;;;;;;;7.53;4.57;;;;;;;20.31;34.10;97455.19;13043385;22;20015;-54
2022/01/19 12:41:07;;;;;;;6.35;3.63;;;;;;;20.07;31.18;97444.72;13063924;22;20019;-55
2022/01/19 12:46:37;;;;;;;14.60;6.65;;;;;;;20.00;34.00;97428.19;13044016;22;20021;-54
2022/01/19 12:51:57;;;;;;;16.50;6.85;;;;;;;20.09;36.68;97419.00;13038831;22;20011;-54
2022/01/19 12:57:17;;;;;;;13.02;5.90;;;;;;;20.15;37.08;97392.59;13042691;22;20387;-54
2022/01/19 13:02:37;;;;;;;11.57;4.82;;;;;;;20.21;37.16;97379.69;13043546;22;20335;-54
2022/01/19 13:08:02;;;;;;;8.60;4.47;;;;;;;20.21;37.09;97367.00;13062288;22;20449;-54
2022/01/19 13:13:29;;;;;;;7.22;4.00;;;;;;;20.23;35.61;97356.66;13063098;22;20072;-53
2022/01/19 13:18:49;;;;;;;7.07;4.03;;;;;;;20.22;34.66;97344.22;13043973;22;20019;-54
2022/01/19 13:24:30;;;;;;;6.25;4.00;;;;;;;20.20;34.18;97321.31;13038880;22;20019;-52
2022/01/19 13:29:49;;;;;;;7.15;3.80;;;;;;;20.17;34.14;97308.41;13044856;22;20011;-54
2022/01/19 13:35:10;;;;;;;8.10;4.30;;;;;;;20.14;34.02;97291.69;13049806;22;20049;-54
2022/01/19 13:40:31;;;;;;;6.53;3.83;;;;;;;20.12;33.86;97287.72;13048158;22;20065;-54
2022/01/19 13:45:59;;;;;;;6.30;3.40;;;;;;;20.09;35.04;97275.63;13044092;22;20037;-54
2022/01/19 13:51:22;;;;;;;6.65;3.45;;;;;;;20.07;35.67;97269.75;13047737;22;20011;-54
2022/01/19 13:56:42;;;;;;;7.82;3.50;;;;;;;20.06;36.08;97257.31;13047678;22;20019;-54
2022/01/19 14:02:13;;;;;;;9.05;3.60;;;;;;;20.06;36.38;97238.38;13045382;22;20501;-54
2022/01/19 14:07:33;;;;;;;8.10;3.63;;;;;;;20.06;36.64;97238.38;13047195;22;20077;-54
2022/01/19 14:12:52;;;;;;;6.63;3.60;;;;;;;20.08;36.93;97235.38;13048334;22;20011;-54
2022/01/19 14:18:11;;;;;;;6.40;3.35;;;;;;;20.08;37.17;97222.63;13049080;22;20019;-54
2022/01/19 14:23:31;;;;;;;5.25;3.58;;;;;;;20.10;37.07;97216.91;13070074;22;20022;-55
2022/01/19 14:29:11;;;;;;;4.78;3.10;;;;;;;20.11;37.14;97208.50;13048270;22;20026;-54
2022/01/19 14:34:40;;;;;;;6.35;3.50;;;;;;;20.15;37.44;97200.53;13045091;22;20051;-52
2022/01/19 14:40:07;;;;;;;5.28;3.40;;;;;;;20.16;37.85;97196.72;13069283;22;20011;-53
2022/01/19 14:45:35;;;;;;;8.00;3.15;;;;;;;20.17;38.20;97187.50;13069903;22;20011;-51
2022/01/19 14:50:55;;;;;;;7.63;4.25;;;;;;;20.19;38.91;97176.34;13069066;22;20023;-55
2022/01/19 14:56:15;;;;;;;8.98;5.13;;;;;;;20.23;39.37;97175.41;13047662;22;20015;-54
2022/01/19 15:01:36;;;;;;;6.32;4.30;;;;;;;20.24;39.68;97155.31;13065250;22;20011;-54
2022/01/19 15:07:00;;;;;;;8.20;4.25;;;;;;;20.28;40.46;97139.25;13068594;22;20076;-54
2022/01/19 15:12:20;;;;;;;7.05;4.15;;;;;;;20.32;41.11;97132.88;13048715;22;20034;-54
2022/01/19 15:17:39;;;;;;;11.05;4.20;;;;;;;20.33;41.37;97120.94;13069124;22;20018;-54
2022/01/19 15:23:00;;;;;;;6.60;4.18;;;;;;;20.35;41.61;97117.94;13047684;22;20435;-53
2022/01/19 15:28:19;;;;;;;10.70;3.65;;;;;;;20.35;42.03;97110.59;13047525;22;20026;-53
2022/01/19 15:33:39;;;;;;;7.35;3.90;;;;;;;20.35;41.98;97116.00;13045919;22;20458;-53
2022/01/19 15:39:01;;;;;;;11.05;4.25;;;;;;;20.35;42.14;97126.03;13044826;22;20019;-54
2022/01/19 15:44:21;;;;;;;8.38;3.70;;;;;;;20.35;42.40;97136.88;13048166;22;20015;-53
2022/01/19 15:49:41;;;;;;;7.95;4.00;;;;;;;20.35;42.47;97124.13;13046263;22;20012;-55
2022/01/19 15:55:01;;;;;;;7.05;3.47;;;;;;;20.33;42.53;97120.94;13042991;22;20022;-54
2022/01/19 16:00:21;;;;;;;8.45;3.47;;;;;;;20.33;42.66;97134.47;13043450;22;20015;-54
2022/01/19 16:05:41;;;;;;;8.13;3.80;;;;;;;20.34;42.70;97119.81;13067506;22;20090;-54
2022/01/19 16:11:00;;;;;;;6.97;4.00;;;;;;;20.33;42.79;97112.84;13066344;22;20019;-55
2022/01/19 16:16:20;;;;;;;6.93;3.67;;;;;;;20.32;42.92;97111.22;13047162;22;20022;-52
2022/01/19 16:21:44;;;;;;;9.10;3.53;;;;;;;20.33;42.94;97104.72;13046428;22;20065;-55
2022/01/19 16:27:04;;;;;;;8.02;3.30;;;;;;;20.31;42.66;97104.25;13046583;22;20090;-55
2022/01/19 16:32:24;;;;;;;6.47;2.90;;;;;;;20.31;42.82;97087.22;13064752;22;20021;-54
2022/01/19 16:37:43;;;;;;;3.72;3.30;;;;;;;20.31;43.07;97077.19;13041552;22;20026;-54
2022/01/19 16:43:04;;;;;;;7.53;3.28;;;;;;;20.31;42.92;97077.19;13039014;22;20809;-55
2022/01/19 16:48:24;;;;;;;7.47;4.90;;;;;;;20.30;43.40;97072.88;13042358;22;20061;-55
2022/01/19 16:53:43;;;;;;;5.25;3.40;;;;;;;20.28;43.16;97058.88;13063996;22;20015;-55
2022/01/19 16:59:05;;;;;;;4.63;2.95;;;;;;;20.30;43.37;97053.16;13043661;22;20023;-55
2022/01/19 17:04:30;;;;;;;4.63;3.08;;;;;;;20.29;43.50;97046.94;13068008;22;20018;-56
2022/01/19 17:09:49;;;;;;;5.45;3.08;;;;;;;20.27;43.82;97043.78;13048833;22;20011;-55
2022/01/19 17:15:44;;;;;;;5.93;3.10;;;;;;;20.27;43.89;97051.91;13068426;22;20015;-54
2022/01/19 17:20:54;;;;;;;4.78;3.15;;;;;;;20.25;43.85;97051.44;13030614;22;20102;-55
2022/01/19 17:26:15;;;;;;;3.45;2.92;;;;;;;20.25;43.95;97053.34;13047554;22;20015;-55
2022/01/19 17:31:35;;;;;;;4.10;2.85;;;;;;;20.23;44.31;97048.25;13047740;22;20314;-54
2022/01/19 17:36:55;;;;;;;7.22;2.75;;;;;;;20.24;44.21;97041.72;13047293;22;20022;-55
2022/01/19 17:42:14;;;;;;;6.40;2.60;;;;;;;20.22;44.25;97035.81;13045323;22;20019;-55
2022/01/19 17:47:50;;;;;;;5.43;3.00;;;;;;;20.22;44.23;97024.22;13046000;22;20015;-56
2022/01/19 17:53:12;;;;;;;5.28;2.83;;;;;;;20.20;43.51;97004.81;13023035;22;20016;-56
2022/01/19 17:58:32;;;;;;;5.03;2.67;;;;;;;20.20;43.15;96999.41;13044262;22;20019;-55
2022/01/19 18:03:52;;;;;;;6.38;2.60;;;;;;;20.16;43.11;96993.84;13045987;22;20012;-55
2022/01/19 18:09:11;;;;;;;5.05;4.28;;;;;;;19.98;36.25;97008.53;13064062;22;20312;-54
2022/01/19 18:14:31;;;;;;;7.30;3.25;;;;;;;19.87;40.36;97016.19;13044093;22;20019;-62
2022/01/19 18:19:50;;;;;;;5.28;3.10;;;;;;;19.90;40.61;97018.25;13066157;22;20457;-56
2022/01/19 18:25:09;;;;;;;4.03;2.60;;;;;;;19.95;40.83;97015.34;13045110;22;20098;-58
2022/01/19 18:30:29;;;;;;;3.95;2.80;;;;;;;19.97;41.14;97012.34;13066428;22;20020;-57
2022/01/19 18:35:48;;;;;;;5.10;2.58;;;;;;;19.98;41.38;97009.31;13044827;22;20545;-57
2022/01/19 18:41:10;;;;;;;5.97;2.53;;;;;;;19.97;41.71;96988.78;13043476;22;20023;-55
2022/01/19 18:46:29;;;;;;;4.32;2.60;;;;;;;19.97;41.74;96980.69;13065988;22;20542;-55
2022/01/19 18:51:49;;;;;;;4.07;2.58;;;;;;;19.97;41.76;96982.59;13045241;22;20497;-54
2022/01/19 18:57:08;;;;;;;2.78;2.33;;;;;;;19.95;41.83;96972.09;13044658;22;20026;-51
2022/01/19 19:02:30;;;;;;;2.83;2.33;;;;;;;19.94;41.86;96968.59;13044752;22;20019;-56
2022/01/19 19:07:51;;;;;;;6.95;2.30;;;;;;;19.94;41.92;96970.53;13043687;22;20039;-57
2022/01/19 19:13:11;;;;;;;2.50;2.08;;;;;;;19.91;41.99;96953.00;13044619;22;20011;-55
2022/01/19 19:18:31;;;;;;;2.95;2.40;;;;;;;19.91;42.17;96950.31;13045119;22;20086;-54
2022/01/19 19:23:51;;;;;;;3.35;1.88;;;;;;;19.91;42.15;96944.13;13044442;22;20015;-54
2022/01/19 19:29:10;;;;;;;5.28;2.35;;;;;;;19.91;42.54;96939.50;13044660;22;20023;-53
2022/01/19 19:34:29;;;;;;;3.58;2.28;;;;;;;19.90;42.48;96937.13;13043489;22;20068;-51
2022/01/19 19:39:50;;;;;;;2.50;2.10;;;;;;;19.88;42.47;96923.16;13043561;22;20021;-52
2022/01/19 19:45:11;;;;;;;3.35;2.42;;;;;;;19.86;42.40;96918.06;13065634;22;20520;-54
2022/01/19 19:50:32;;;;;;;2.30;2.10;;;;;;;19.85;42.58;96913.75;13043708;22;20044;-53
2022/01/19 19:55:52;;;;;;;4.50;2.00;;;;;;;19.84;42.97;96909.47;13064061;22;20022;-53
2022/01/19 20:01:12;;;;;;;3.25;2.10;;;;;;;19.84;43.06;96900.59;13065363;22;20053;-54
2022/01/19 20:06:31;;;;;;;5.32;2.20;;;;;;;19.83;43.33;96899.78;13064547;22;20019;-54
2022/01/19 20:11:51;;;;;;;5.72;2.35;;;;;;;19.81;43.22;96901.22;13041981;22;20015;-54
2022/01/19 20:17:15;;;;;;;4.32;2.40;;;;;;;19.79;43.32;96879.13;13064495;22;20025;-53
2022/01/19 20:22:35;;;;;;;5.13;2.55;;;;;;;19.78;43.45;96878.34;13043563;22;20042;-54
2022/01/19 20:27:55;;;;;;;4.30;2.55;;;;;;;19.75;43.37;96873.56;13041626;22;20023;-52
2022/01/19 20:33:14;;;;;;;5.88;2.30;;;;;;;19.75;43.59;96862.75;13043330;22;20011;-54
2022/01/19 20:38:38;;;;;;;6.82;2.50;;;;;;;19.74;43.65;96855.78;13063417;22;20026;-53
2022/01/19 20:43:58;;;;;;;5.40;2.78;;;;;;;19.73;43.75;96849.56;13063553;22;20023;-54
2022/01/19 20:49:18;;;;;;;5.95;2.75;;;;;;;19.72;43.94;96847.19;13063837;22;20015;-53
2022/01/19 20:54:38;;;;;;;7.97;3.28;;;;;;;19.70;44.12;96847.50;13041614;22;20042;-52
2022/01/19 20:59:57;;;;;;;7.43;3.20;;;;;;;19.69;44.61;96840.47;13043438;22;20585;-54
2022/01/19 21:05:17;;;;;;;6.30;2.78;;;;;;;19.69;44.79;96828.88;13063843;22;20021;-53
2022/01/19 21:10:37;;;;;;;6.57;3.15;;;;;;;19.68;45.00;96827.28;13041780;22;20015;-53
2022/01/19 21:15:57;;;;;;;9.57;3.30;;;;;;;19.67;45.55;96802.19;13058199;22;20019;-55
2022/01/19 21:21:17;;;;;;;8.45;2.85;;;;;;;19.65;45.83;96798.22;13016625;22;20015;-54
2022/01/19 21:26:36;;;;;;;9.18;2.85;;;;;;;19.64;45.93;96796.63;13041404;22;20026;-51
2022/01/19 21:31:55;;;;;;;7.00;2.90;;;;;;;19.63;45.92;96797.75;13040292;22;20026;-54
2022/01/19 21:37:18;;;;;;;6.43;2.75;;;;;;;19.62;46.02;96796.16;13041370;22;20022;-53
2022/01/19 21:42:38;;;;;;;8.48;2.80;;;;;;;19.60;45.98;96795.69;13040643;22;20672;-54
2022/01/19 21:47:57;;;;;;;4.78;2.40;;;;;;;19.59;45.79;96794.91;13042631;22;20029;-54
2022/01/19 21:53:17;;;;;;;6.40;2.90;;;;;;;19.56;45.93;96790.94;13044217;22;20011;-54
2022/01/19 21:58:36;;;;;;;7.97;3.00;;;;;;;19.55;45.83;96792.06;13045347;22;20447;-54
2022/01/19 22:03:56;;;;;;;4.95;2.50;;;;;;;19.54;45.85;96784.25;13065849;22;20019;-53
2022/01/19 22:09:19;;;;;;;7.15;2.45;;;;;;;19.53;45.82;96794.28;13044270;22;20034;-52
2022/01/19 22:14:39;;;;;;;7.68;2.78;;;;;;;19.50;45.61;96786.84;13065657;22;20023;-53
2022/01/19 22:19:58;;;;;;;5.78;2.63;;;;;;;19.49;45.56;96787.94;13044941;22;20019;-52
2022/01/19 22:25:19;;;;;;;4.18;2.33;;;;;;;19.49;45.51;96777.13;13043533;22;20023;-55
2022/01/19 22:30:43;;;;;;;6.05;2.10;;;;;;;19.48;45.58;96786.38;13065410;22;20395;-54
2022/01/19 22:36:03;;;;;;;4.53;2.47;;;;;;;19.45;45.60;96778.91;13045722;22;20064;-51
2022/01/19 22:41:23;;;;;;;5.60;2.13;;;;;;;19.45;45.36;96786.22;13045826;22;20019;-54
2022/01/19 22:46:44;;;;;;;6.50;2.63;;;;;;;19.42;45.31;96779.53;13047137;22;20023;-54
2022/01/19 22:52:04;;;;;;;4.40;2.25;;;;;;;19.42;45.42;96773.34;13067382;22;20019;-54
2022/01/19 22:57:24;;;;;;;5.60;2.30;;;;;;;19.41;45.42;96752.88;13046602;22;20015;-55
2022/01/19 23:02:44;;;;;;;6.60;2.50;;;;;;;19.38;45.37;96754.28;13045874;22;20469;-55
2022/01/19 23:08:04;;;;;;;4.82;2.28;;;;;;;19.36;45.39;96746.50;13044417;22;20019;-54
2022/01/19 23:13:25;;;;;;;3.67;2.17;;;;;;;19.35;45.25;96744.16;13044827;22;20015;-52
2022/01/19 23:18:44;;;;;;;3.35;1.83;;;;;;;19.34;45.25;96737.16;13045896;22;20015;-52
2022/01/19 23:24:08;;;;;;;2.75;2.00;;;;;;;19.33;45.09;96740.97;13045720;22;20019;-54
2022/01/19 23:29:28;;;;;;;4.15;2.03;;;;;;;19.31;45.04;96735.13;13044977;22;20015;-54
2022/01/19 23:34:48;;;;;;;3.45;1.98;;;;;;;19.29;45.05;96740.03;13045646;22;20076;-54
2022/01/19 23:51:04;;;;;;;3.53;1.90;;;;;;;19.25;44.84;96750.69;13045402;22;20342;-55
2022/01/19 23:56:26;;;;;;;3.08;1.90;;;;;;;19.22;44.95;96740.53;13044495;22;20019;-55
